Crew | Aerofun Virtual



 METAR AND TAF INFORMATION
METAR FOR OTBD
ADDS - METARS form results

(2049 UTC 27 February 2020)
Data provider http://aviationweather.gov/metar/data/
 
METAR text: OTBD 272030Z AUTO 31008KT 270V330 CAVOK 18/11 Q1017 NOSIG
Conditions at: OTBD (DOHA INTL AIRPOR, QA) observed 2030 UTC 27 February 2020
Temperature: 18.0°C (64°F)
Dewpoint: 11.0°C (52°F) [RH = 64%]
Pressure (altimeter): 30.03 inches Hg (1017.0 mb)
Winds: from the NW (310 degrees) at 9 MPH (8 knots; 4.1 m/s)
Visibility: 6 or more miles (10+ km)
Ceiling: ceiling and visibility are OK
Clouds: unknown
Weather: no significant weather observed at this time

METAR text: OTBD 272000Z AUTO 31008KT CAVOK 18/11 Q1017 NOSIG
Conditions at: OTBD (DOHA INTL AIRPOR, QA) observed 2000 UTC 27 February 2020
Temperature: 18.0°C (64°F)
Dewpoint: 11.0°C (52°F) [RH = 64%]
Pressure (altimeter): 30.03 inches Hg (1017.0 mb)
Winds: from the NW (310 degrees) at 9 MPH (8 knots; 4.1 m/s)
Visibility: 6 or more miles (10+ km)
Ceiling: ceiling and visibility are OK
Clouds: unknown
Weather: no significant weather observed at this time

Forecast for: OTBD (DOHA INTL AIRPOR, QA)
Text: TAF OTBD 271703Z 2718/2824 30010KT CAVOK
Forecast period: 1800 UTC 27 February 2020 to 0000 UTC 29 February 2020
Forecast type: FROM: standard forecast or significant change
Winds: from the WNW (300 degrees) at 12 MPH (10 knots; 5.1 m/s)
Visibility: 6 or more miles 10+ km)
Ceiling: unknown
Clouds: missing
Weather: NSW  (no significant weather)

 AIRPORT MAP

 RUNWAY INFORMATION
Runway 15 Runway length 15000 ft Runway width 151 ft
Runway elevation 35 ft Runway displaced threshold 2460 ft Runway heading 158
Runway 33 Runway length 15000 ft Runway width 151 ft
Runway elevation 25 ft Runway displaced threshold 0 ft Runway heading 338

 AIRPORT FREQUENCIES
Type APP Name APP Frequency 121.1 MHZ
Type ATIS Name ATIS Frequency 126.45 MHZ
Type GND Name GND Frequency 118.275 MHZ
Type OPS Name KINGFISH N Frequency 139.5 MHZ
Type TWR Name TWR Frequency 118.9 MHZ

 AIRPORT NEAR NAVIGATION AIDS
Type VOR-DME Name Doha Frequency 112400 KHZ
Type NDB Name Wk Frequency 323 KHZ